Latest Weather Observations for St Kilda Harbour RMYS

IDV60901

Issued at 5:41 am EST Wednesday 29 April 2015 (issued every 10 minutes, with the page automatically refreshed every 10 minutes)

About weather observations | Map of Melbourne area stations | Latest observations for Melbourne area | Other Formats
Station Details ID: 086220 Name: ST KILDA HARBOUR - RMYS Lat: -37.86 Lon: 144.96 Height: 6.4 m
Data from the previous 72 hours. | See also: Recent months for locations in Victoria
Date/Time
EST
Tmp

°C
App
Tmp
°C
Dew
Point
°C
Rel
Hum
%
Delta-T

°C
Wind Press
QNH
hPa
Press
MSL
hPa
Rain
since
9 am
mm
Dir
 
Spd
km/h
Gust
km/h
Spd
kts
Gust
kts
29/05:30am - - - - - N 7 9 4 5 - - -
29/05:00am - - - - - NW 9 11 5 6 - - -
29/04:30am - - - - - NW 11 15 6 8 - - -
29/04:00am - - - - - WNW 9 11 5 6 - - -
29/03:30am - - - - - WNW 9 15 5 8 - - -
29/03:00am - - - - - N 7 9 4 5 - - -
29/02:30am - - - - - NNE 9 11 5 6 - - -
29/02:00am - - - - - NE 7 11 4 6 - - -
29/01:30am - - - - - SE 7 11 4 6 - - -
29/01:00am - - - - - SE 15 19 8 10 - - -
29/12:30am - - - - - ESE 13 17 7 9 - - -
29/12:00am - - - - - ESE 9 13 5 7 - - -
 
Date/Time
EST
Tmp

°C
App
Tmp
°C
Dew
Point
°C
Rel
Hum
%
Delta-T

°C
Wind Press
QNH
hPa
Press
MSL
hPa
Rain
since
9 am
mm
Dir
 
Spd
km/h
Gust
km/h
Spd
kts
Gust
kts
28/11:30pm - - - - - E 7 11 4 6 - - -
28/11:00pm - - - - - E 9 13 5 7 - - -
28/10:30pm - - - - - E 9 13 5 7 - - -
28/10:00pm - - - - - E 6 9 3 5 - - -
28/09:30pm - - - - - E 6 7 3 4 - - -
28/09:00pm - - - - - E 7 9 4 5 - - -
28/08:30pm - - - - - ESE 9 13 5 7 - - -
28/08:00pm - - - - - E 9 11 5 6 - - -
28/07:30pm - - - - - ESE 9 13 5 7 - - -
28/07:00pm - - - - - ESE 9 13 5 7 - - -
28/06:30pm - - - - - SE 15 19 8 10 - - -
28/06:00pm - - - - - SE 19 26 10 14 - - -
28/05:30pm - - - - - SSE 26 30 14 16 - - -
28/05:00pm - - - - - S 26 30 14 16 - - -
28/04:30pm - - - - - S 28 32 15 17 - - -
28/04:00pm - - - - - S 30 35 16 19 - - -
28/03:30pm - - - - - S 28 33 15 18 - - -
28/03:00pm - - - - - S 22 26 12 14 - - -
28/02:30pm - - - - - S 17 20 9 11 - - -
28/02:00pm - - - - - SSE 17 20 9 11 - - -
28/01:30pm - - - - - SSE 22 28 12 15 - - -
28/01:00pm - - - - - SSE 26 30 14 16 - - -
28/12:30pm - - - - - S 28 35 15 19 - - -
28/12:00pm - - - - - SSW 11 17 6 9 - - -
28/11:30am - - - - - WSW 9 9 5 5 - - -
28/11:00am - - - - - W 9 11 5 6 - - -
28/10:30am - - - - - NW 9 11 5 6 - - -
28/10:00am - - - - - NW 9 13 5 7 - - -
28/09:30am - - - - - WNW 13 17 7 9 - - -
28/09:00am - - - - - NW 15 19 8 10 - - -
28/08:30am - - - - - NNE 6 7 3 4 - - -
28/08:00am - - - - - NW 9 19 5 10 - - -
28/07:30am - - - - - N 4 13 2 7 - - -
28/07:00am - - - - - NNW 6 19 3 10 - - -
28/06:30am - - - - - NNW 9 15 5 8 - - -
28/06:00am - - - - - WNW 13 17 7 9 - - -
28/05:30am - - - - - NNE 11 15 6 8 - - -
28/05:00am - - - - - NW 13 17 7 9 - - -
28/04:30am - - - - - NNW 13 17 7 9 - - -
28/04:00am - - - - - W 17 22 9 12 - - -
28/03:30am - - - - - WSW 24 28 13 15 - - -
28/03:00am - - - - - WSW 24 30 13 16 - - -
28/02:30am - - - - - W 20 24 11 13 - - -
28/02:00am - - - - - WSW 28 32 15 17 - - -
28/01:30am - - - - - WSW 32 37 17 20 - - -
28/01:00am - - - - - WSW 30 33 16 18 - - -
28/12:30am - - - - - WSW 28 32 15 17 - - -
28/12:00am - - - - - WSW 22 30 12 16 - - -
 
Date/Time
EST
Tmp

°C
App
Tmp
°C
Dew
Point
°C
Rel
Hum
%
Delta-T

°C
Wind Press
QNH
hPa
Press
MSL
hPa
Rain
since
9 am
mm
Dir
 
Spd
km/h
Gust
km/h
Spd
kts
Gust
kts
27/11:30pm - - - - - WSW 26 32 14 17 - - -
27/11:00pm - - - - - WSW 24 28 13 15 - - -
27/10:30pm - - - - - SW 22 28 12 15 - - -
27/10:00pm - - - - - SW 28 33 15 18 - - -
27/09:30pm - - - - - SW 30 41 16 22 - - -
27/09:00pm - - - - - SSW 26 30 14 16 - - -
27/08:30pm - - - - - SSW 26 30 14 16 - - -
27/08:00pm - - - - - SW 26 33 14 18 - - -
27/07:30pm - - - - - SSW 28 35 15 19 - - -
27/07:00pm - - - - - SSW 26 32 14 17 - - -
27/06:30pm - - - - - SSW 28 33 15 18 - - -
27/06:00pm - - - - - SSW 28 32 15 17 - - -
27/05:30pm - - - - - SSW 28 35 15 19 - - -
27/05:00pm - - - - - SSW 26 32 14 17 - - -
27/04:30pm - - - - - SSW 30 35 16 19 - - -
27/04:00pm - - - - - SSW 24 30 13 16 - - -
27/03:30pm - - - - - SSW 26 28 14 15 - - -
27/03:00pm - - - - - SSW 26 30 14 16 - - -
27/02:30pm - - - - - SSW 20 26 11 14 - - -
27/02:00pm - - - - - SSW 17 20 9 11 - - -
27/01:30pm - - - - - SSW 30 35 16 19 - - -
27/01:00pm - - - - - SW 26 35 14 19 - - -
27/12:30pm - - - - - SW 24 30 13 16 - - -
27/12:00pm - - - - - SW 30 35 16 19 - - -
27/11:30am - - - - - SW 26 32 14 17 - - -
27/11:00am - - - - - SW 30 35 16 19 - - -
27/10:30am - - - - - SW 30 33 16 18 - - -
27/10:00am - - - - - SW 32 37 17 20 - - -
27/09:30am - - - - - WSW 32 39 17 21 - - -
27/09:00am - - - - - WSW 30 35 16 19 - - -
27/08:30am - - - - - WSW 26 32 14 17 - - -
27/08:00am - - - - - WSW 32 37 17 20 - - -
27/07:30am - - - - - WSW 26 32 14 17 - - -
27/07:00am - - - - - W 26 33 14 18 - - -
27/06:30am - - - - - WSW 32 37 17 20 - - -
27/06:00am - - - - - WSW 28 33 15 18 - - -
27/05:30am - - - - - WSW 33 39 18 21 - - -
27/05:00am - - - - - WSW 33 41 18 22 - - -
27/04:30am - - - - - WSW 35 41 19 22 - - -
27/04:00am - - - - - WSW 35 44 19 24 - - -
27/03:30am - - - - - WSW 33 39 18 21 - - -
27/03:00am - - - - - WSW 35 44 19 24 - - -
27/02:30am - - - - - WSW 33 39 18 21 - - -
27/02:00am - - - - - WSW 37 46 20 25 - - -
27/01:30am - - - - - WSW 35 43 19 23 - - -
27/01:00am - - - - - WSW 33 39 18 21 - - -
27/12:30am - - - - - WSW 30 39 16 21 - - -
27/12:00am - - - - - WSW 26 35 14 19 - - -
 
Date/Time
EST
Tmp

°C
App
Tmp
°C
Dew
Point
°C
Rel
Hum
%
Delta-T

°C
Wind Press
QNH
hPa
Press
MSL
hPa
Rain
since
9 am
mm
Dir
 
Spd
km/h
Gust
km/h
Spd
kts
Gust
kts
26/11:30pm - - - - - W 24 30 13 16 - - -
26/11:00pm - - - - - W 26 32 14 17 - - -
26/10:30pm - - - - - WSW 33 41 18 22 - - -
26/10:00pm - - - - - WSW 35 41 19 22 - - -
26/09:30pm - - - - - WSW 39 46 21 25 - - -
26/09:00pm - - - - - WSW 39 48 21 26 - - -
26/08:30pm - - - - - WSW 43 50 23 27 - - -
26/08:00pm - - - - - WSW 35 41 19 22 - - -
26/07:30pm - - - - - WSW 35 41 19 22 - - -
26/07:00pm - - - - - WSW 37 43 20 23 - - -
26/06:30pm - - - - - WSW 37 44 20 24 - - -
26/06:00pm - - - - - WSW 35 43 19 23 - - -
26/05:30pm - - - - - WSW 37 44 20 24 - - -
26/05:26pm - - - - - SW 37 44 20 24 - - -
26/05:00pm - - - - - SW 35 43 19 23 - - -
26/04:30pm - - - - - SW 39 48 21 26 - - -
26/04:00pm - - - - - SSW 37 44 20 24 - - -
26/03:30pm - - - - - SSW 39 48 21 26 - - -
26/03:00pm - - - - - SSW 33 39 18 21 - - -
26/02:30pm - - - - - SSW 33 43 18 23 - - -
26/02:00pm - - - - - SW 26 30 14 16 - - -
26/01:35pm - - - - - SW 32 54 17 29 - - -
26/01:30pm - - - - - SW 30 35 16 19 - - -
26/01:00pm - - - - - SW 43 52 23 28 - - -
26/12:51pm - - - - - SW 32 50 17 27 - - -
26/12:30pm - - - - - WSW 28 33 15 18 - - -
26/12:00pm - - - - - WSW 35 43 19 23 - - -
26/11:32am - - - - - SW 30 48 16 26 - - -
26/11:30am - - - - - SW 30 35 16 19 - - -
26/11:00am - - - - - SW 35 44 19 24 - - -
26/10:30am - - - - - SW 35 44 19 24 - - -
26/10:00am - - - - - SSW 32 41 17 22 - - -
26/09:57am - - - - - SW 33 43 18 23 - - -
26/09:30am - - - - - WSW 41 46 22 25 - - -
26/09:00am - - - - - WSW 30 37 16 20 - - -
26/08:30am - - - - - SW 33 43 18 23 - - -
26/08:00am - - - - - SW 28 41 15 22 - - -
26/07:30am - - - - - SW 41 52 22 28 - - -
26/07:00am - - - - - WSW 37 44 20 24 - - -
26/06:30am - - - - - WSW 35 50 19 27 - - -
26/06:00am - - - - - WSW 39 48 21 26 - - -

Latest Capital City Observations: Canberra | Sydney | Melbourne | Brisbane | Adelaide | Perth | Hobart | Darwin

Other Formats:

Comma delimited format used in spreadsheet applications
http://www.bom.gov.au/fwo/IDV60901/IDV60901.95864.axf

JavaScript Object Notation format (JSON) in row-major order
http://www.bom.gov.au/fwo/IDV60901/IDV60901.95864.json